Cedarville, California
Current Conditions -  °F | °C
As of 3:55 AM on Thursday 23 Oct 2014 (Local Time) from KAAT Reporting Station
Light Rain Light Rain  
Wind Chill: 46°   Ceiling: 5500
Heat Index: 48°   Visibility: 10mi
Dew Point: 44°   Wind: 5mph
Humidity: 86%   Direction: 220°SW
Pressure: 30.07"   Gusts: NA
Location:  41.53°N, 120.18°W
Report Text: KAAT 231055Z AUTO 22004KT 10SM -RA OVC055 09/07 A3007 RMK AO2 SLP165 P0004 T00890067
Loading
Personal Weather Stations






























Interactive Weather Map
Tropical Storm Tracking
New forecast layout! Learn more

10-Day Weather Forecast

Advertisements
Track Severe Weather on mobile